Nulltown, Indiana
Current Conditions -  °F | °C
As of 12:55 PM on Friday 24 Oct 2014 (Local Time) from KI67 Reporting Station
Clear Clear  
Wind Chill: 61°   Ceiling: Unl
Heat Index: 61°   Visibility: 10mi
Dew Point: 41°   Wind: 7mph
Humidity: 48%   Direction: 200°SSW
Pressure: 30.1"   Gusts: NA
Location:  39.645°N, 85.1744°W
Report Text: KI67 241655Z AUTO 20006KT 10SM CLR 16/05 A3010 RMK AO1
Loading
Personal Weather Stations






























Interactive Weather Map New forecast layout! Learn more

10-Day Weather Forecast

Advertisements
Track Severe Weather on mobile